Nearby METAR Reports

 

KSFZ - Pawtucket, Rhode Island, USA
Distance from station: S 7mi, 11km
Updated: Fri, 07-Aug-2020 4:56am EDT
Clear
Clear
 Wind from NE
Wind: NE 6 mph , 9 km/h
Temperature: 66°F , 19°C
Dew Point: 61°F , 16°C
Humidity: 83%
Barometer: 30.15 inHg , 1021 hPa
Clouds: Clear
Visibility: 10 miles , 16 km
2020/08/07 08:56 KSFZ 070856Z AUTO 04005KT 10SM CLR 19/16 A3015 RMK AO2 SLP154 T01940161 55001
KPVD - Providence/Green, Rhode Island, USA
Distance from station: SSE 21mi, 34km
Updated: Fri, 07-Aug-2020 4:51am EDT
Clear
Clear
 Wind from NNW
Wind: NNW 5 mph , 7 km/h
Temperature: 68°F , 20°C
Dew Point: 63°F , 17°C
Humidity: 83%
Barometer: 30.13 inHg , 1020.3 hPa
Clouds: Clear
Visibility: 10 miles , 16 km
2020/08/07 08:51 KPVD 070851Z 34004KT 10SM CLR 20/17 A3013 RMK AO2 SLP202 T02000167 55001
 
KORH - Worcester, Massachusetts, USA
Distance from station: NW 25mi, 40km
Updated: Fri, 07-Aug-2020 4:54am EDT
Clear
Clear
 Wind from N
Wind: N 6 mph , 9 km/h
Temperature: 66°F , 19°C
Dew Point: 50°F , 10°C
Humidity: 56%
Barometer: 30.17 inHg , 1021.7 hPa
Clouds: Clear
Visibility: 10 miles , 16 km
2020/08/07 08:54 KORH 070854Z AUTO 01005KT 10SM CLR 19/10 A3017 RMK AO2 SLP211 T01940100 55000
KTAN - Taunton, Massachusetts, USA
Distance from station: ESE 28mi, 44km
Updated: Fri, 07-Aug-2020 4:52am EDT
Clear
Clear
 Wind from calm
Wind: Calm
Temperature: 63°F , 17°C
Dew Point: 59°F , 15°C
Humidity: 88%
Barometer: 30.13 inHg , 1020.3 hPa
Clouds: Clear
Visibility: 10 miles , 16 km
2020/08/07 08:52 KTAN 070852Z AUTO 00000KT 10SM CLR 17/15 A3013 RMK AO2 SLP201 T01670150 55001
 
KOQU - N. Kingston/Quon, Rhode Island, USA
Distance from station: S 29mi, 47km
Updated: Thu, 06-Aug-2020 9:50pm EDT
NOT Current
Clear
Clear
 Wind from W
Wind: W 7 mph , 11 km/h
Temperature: 72°F , 22°C
Dew Point: 63°F , 17°C
Humidity: 73%
Barometer: 30.12 inHg , 1020 hPa
Clouds: Clear
Visibility: 10 miles , 16 km
2020/08/07 01:50 KOQU 070150Z 26006KT 10SM SKC 22/17 A3012
KBOS - Boston, Massachusetts, USA
Distance from station: NE 35mi, 57km
Updated: Fri, 07-Aug-2020 4:54am EDT
Overcast
Overcast
 Wind from calm
Wind: Calm
Temperature: 68°F , 20°C
Dew Point: 55°F , 13°C
Humidity: 64%
Barometer: 30.14 inHg , 1020.7 hPa
Clouds: Overcast
Visibility: 10 miles , 16 km
Cloud details: Few Clouds 6000 ft
Overcast 20000 ft
2020/08/07 08:54 KBOS 070854Z 00000KT 10SM FEW060 OVC200 20/13 A3014 RMK AO2 SLP205 T02000133 53001
 
KUUU - Newport, Rhode Island, USA
Distance from station: SSE 36mi, 57km
Updated: Fri, 07-Aug-2020 4:53am EDT
Clear
Clear
 Wind from calm
Wind: Calm
Temperature: 68°F , 20°C
Dew Point: 63°F , 17°C
Humidity: 83%
Barometer: 30.12 inHg , 1020 hPa
Clouds: Clear
Visibility: 10 miles , 16 km
2020/08/07 08:53 KUUU 070853Z AUTO 00000KT 10SM CLR 20/17 A3012 RMK AO2 SLP197 T02000167 55003
KPYM - Plymouth, Massachusetts, USA
Distance from station: E 41mi, 66km
Updated: Fri, 07-Aug-2020 4:52am EDT
Partly cloudy
Partly cloudy
 Wind from NNE
Wind: NNE 5 mph , 7 km/h
Temperature: 64°F , 18°C
Dew Point: 59°F , 15°C
Humidity: 83%
Barometer: 30.13 inHg , 1020.3 hPa
Clouds: Partly cloudy
Visibility: 10 miles , 16 km
Cloud details: Partly cloudy 8000 ft
2020/08/07 08:52 KPYM 070852Z AUTO 03004KT 10SM SCT080 18/15 A3013 RMK AO2 SLP204 T01780150 53001
 
KWST - Westerly, Rhode Island, USA
Distance from station: SSW 48mi, 78km
Updated: Fri, 07-Aug-2020 4:53am EDT
Clear
Clear
 Wind from N
Wind: N 5 mph , 7 km/h
Temperature: 64°F , 18°C
Dew Point: 61°F , 16°C
Humidity: 88%
Barometer: 30.12 inHg , 1020 hPa
Clouds: Clear
Visibility: 10 miles , 16 km
2020/08/07 08:53 KWST 070853Z AUTO 36004KT 10SM CLR 18/16 A3012 RMK AO2 SLP200 T01830156 55001 $